sensor_id;sensor_type;location;lat;lon;timestamp;P1;durP1;ratioP1;P2;durP2;ratioP2
71496;SDS011;59317;53.218;5.730;2023-04-28T00:01:41;9.90;;;4.22;;
71496;SDS011;59317;53.218;5.730;2023-04-28T00:04:07;8.93;;;3.65;;
71496;SDS011;59317;53.218;5.730;2023-04-28T00:06:33;8.88;;;2.90;;
71496;SDS011;59317;53.218;5.730;2023-04-28T00:08:59;8.50;;;3.70;;
71496;SDS011;59317;53.218;5.730;2023-04-28T00:11:25;8.40;;;2.60;;
71496;SDS011;59317;53.218;5.730;2023-04-28T00:13:51;7.47;;;2.93;;
71496;SDS011;59317;53.218;5.730;2023-04-28T00:16:17;9.77;;;2.60;;
71496;SDS011;59317;53.218;5.730;2023-04-28T00:18:43;6.40;;;2.55;;
71496;SDS011;59317;53.218;5.730;2023-04-28T00:21:09;7.60;;;2.50;;
71496;SDS011;59317;53.218;5.730;2023-04-28T00:23:35;7.40;;;2.45;;
71496;SDS011;59317;53.218;5.730;2023-04-28T00:26:01;7.70;;;3.08;;
71496;SDS011;59317;53.218;5.730;2023-04-28T00:28:27;6.97;;;2.33;;
71496;SDS011;59317;53.218;5.730;2023-04-28T00:30:53;8.70;;;2.60;;
71496;SDS011;59317;53.218;5.730;2023-04-28T00:33:19;8.85;;;2.40;;
71496;SDS011;59317;53.218;5.730;2023-04-28T00:35:45;7.60;;;2.80;;
71496;SDS011;59317;53.218;5.730;2023-04-28T00:38:11;6.30;;;2.10;;
71496;SDS011;59317;53.218;5.730;2023-04-28T00:40:37;6.32;;;2.45;;
71496;SDS011;59317;53.218;5.730;2023-04-28T00:43:04;7.20;;;2.42;;
71496;SDS011;59317;53.218;5.730;2023-04-28T00:45:30;10.18;;;3.05;;
71496;SDS011;59317;53.218;5.730;2023-04-28T00:47:56;8.85;;;2.72;;
71496;SDS011;59317;53.218;5.730;2023-04-28T00:50:23;7.53;;;2.60;;
71496;SDS011;59317;53.218;5.730;2023-04-28T00:52:50;6.40;;;2.50;;
71496;SDS011;59317;53.218;5.730;2023-04-28T00:55:17;9.60;;;2.72;;
71496;SDS011;59317;53.218;5.730;2023-04-28T00:57:44;7.90;;;2.72;;
71496;SDS011;59317;53.218;5.730;2023-04-28T01:00:10;7.82;;;2.88;;
71496;SDS011;59317;53.218;5.730;2023-04-28T01:02:36;7.28;;;2.72;;
71496;SDS011;59317;53.218;5.730;2023-04-28T01:05:02;8.02;;;2.95;;
71496;SDS011;59317;53.218;5.730;2023-04-28T01:07:29;7.75;;;2.75;;
71496;SDS011;59317;53.218;5.730;2023-04-28T01:09:55;10.18;;;3.33;;
71496;SDS011;59317;53.218;5.730;2023-04-28T01:12:21;8.07;;;3.25;;
71496;SDS011;59317;53.218;5.730;2023-04-28T01:14:48;8.60;;;2.90;;
71496;SDS011;59317;53.218;5.730;2023-04-28T01:17:14;9.38;;;3.47;;
71496;SDS011;59317;53.218;5.730;2023-04-28T01:19:41;9.48;;;3.60;;
71496;SDS011;59317;53.218;5.730;2023-04-28T01:22:07;9.25;;;3.20;;
71496;SDS011;59317;53.218;5.730;2023-04-28T01:24:37;8.90;;;3.30;;
71496;SDS011;59317;53.218;5.730;2023-04-28T01:27:04;10.73;;;4.00;;
71496;SDS011;59317;53.218;5.730;2023-04-28T01:29:30;9.32;;;3.33;;
71496;SDS011;59317;53.218;5.730;2023-04-28T01:31:56;10.65;;;3.85;;
71496;SDS011;59317;53.218;5.730;2023-04-28T01:34:22;10.33;;;4.10;;
71496;SDS011;59317;53.218;5.730;2023-04-28T01:36:48;9.80;;;3.70;;
71496;SDS011;59317;53.218;5.730;2023-04-28T01:39:14;10.10;;;4.10;;
71496;SDS011;59317;53.218;5.730;2023-04-28T01:41:41;10.18;;;3.47;;
71496;SDS011;59317;53.218;5.730;2023-04-28T01:44:07;8.85;;;3.40;;
71496;SDS011;59317;53.218;5.730;2023-04-28T01:46:33;9.05;;;3.15;;
71496;SDS011;59317;53.218;5.730;2023-04-28T01:49:00;9.73;;;4.10;;
71496;SDS011;59317;53.218;5.730;2023-04-28T01:51:26;10.00;;;3.90;;
71496;SDS011;59317;53.218;5.730;2023-04-28T01:53:52;9.63;;;3.83;;
71496;SDS011;59317;53.218;5.730;2023-04-28T01:56:18;7.70;;;2.92;;
71496;SDS011;59317;53.218;5.730;2023-04-28T01:58:44;9.43;;;3.77;;
71496;SDS011;59317;53.218;5.730;2023-04-28T02:01:10;10.23;;;3.93;;
71496;SDS011;59317;53.218;5.730;2023-04-28T02:03:36;10.05;;;3.42;;
71496;SDS011;59317;53.218;5.730;2023-04-28T02:06:02;10.85;;;3.63;;
71496;SDS011;59317;53.218;5.730;2023-04-28T02:08:28;8.27;;;3.30;;
71496;SDS011;59317;53.218;5.730;2023-04-28T02:10:54;8.80;;;3.40;;
71496;SDS011;59317;53.218;5.730;2023-04-28T02:13:24;10.82;;;4.00;;
71496;SDS011;59317;53.218;5.730;2023-04-28T02:15:50;8.07;;;3.60;;
71496;SDS011;59317;53.218;5.730;2023-04-28T02:18:16;9.27;;;3.38;;
71496;SDS011;59317;53.218;5.730;2023-04-28T02:20:42;10.15;;;3.83;;
71496;SDS011;59317;53.218;5.730;2023-04-28T02:23:08;9.88;;;4.18;;
71496;SDS011;59317;53.218;5.730;2023-04-28T02:25:34;9.88;;;3.55;;
71496;SDS011;59317;53.218;5.730;2023-04-28T02:28:00;9.48;;;4.00;;
71496;SDS011;59317;53.218;5.730;2023-04-28T02:30:27;8.75;;;3.88;;
71496;SDS011;59317;53.218;5.730;2023-04-28T02:32:53;12.65;;;4.18;;
71496;SDS011;59317;53.218;5.730;2023-04-28T02:35:19;10.77;;;3.60;;
71496;SDS011;59317;53.218;5.730;2023-04-28T02:37:45;11.05;;;4.35;;
71496;SDS011;59317;53.218;5.730;2023-04-28T02:40:11;10.20;;;4.25;;
71496;SDS011;59317;53.218;5.730;2023-04-28T02:42:39;10.32;;;3.88;;
71496;SDS011;59317;53.218;5.730;2023-04-28T02:45:05;11.30;;;4.50;;
71496;SDS011;59317;53.218;5.730;2023-04-28T02:47:32;10.10;;;4.10;;
71496;SDS011;59317;53.218;5.730;2023-04-28T02:49:58;10.10;;;3.78;;
71496;SDS011;59317;53.218;5.730;2023-04-28T02:52:24;10.15;;;4.38;;
71496;SDS011;59317;53.218;5.730;2023-04-28T02:54:50;11.10;;;4.13;;
71496;SDS011;59317;53.218;5.730;2023-04-28T02:57:18;9.93;;;4.30;;
71496;SDS011;59317;53.218;5.730;2023-04-28T02:59:44;10.20;;;4.25;;
71496;SDS011;59317;53.218;5.730;2023-04-28T03:02:10;11.75;;;4.70;;
71496;SDS011;59317;53.218;5.730;2023-04-28T03:04:36;10.77;;;4.35;;
71496;SDS011;59317;53.218;5.730;2023-04-28T03:07:02;10.73;;;3.80;;
71496;SDS011;59317;53.218;5.730;2023-04-28T03:09:28;11.05;;;4.68;;
71496;SDS011;59317;53.218;5.730;2023-04-28T03:11:54;10.10;;;4.35;;
71496;SDS011;59317;53.218;5.730;2023-04-28T03:14:20;10.60;;;4.20;;
71496;SDS011;59317;53.218;5.730;2023-04-28T03:16:46;12.10;;;4.67;;
71496;SDS011;59317;53.218;5.730;2023-04-28T03:19:12;10.85;;;3.85;;
71496;SDS011;59317;53.218;5.730;2023-04-28T03:21:38;11.80;;;4.40;;
71496;SDS011;59317;53.218;5.730;2023-04-28T03:24:04;14.23;;;4.70;;
71496;SDS011;59317;53.218;5.730;2023-04-28T03:26:30;11.45;;;4.10;;
71496;SDS011;59317;53.218;5.730;2023-04-28T03:28:56;11.38;;;4.40;;
71496;SDS011;59317;53.218;5.730;2023-04-28T03:31:22;13.50;;;5.30;;
71496;SDS011;59317;53.218;5.730;2023-04-28T03:33:49;11.23;;;4.88;;
71496;SDS011;59317;53.218;5.730;2023-04-28T03:36:15;10.30;;;4.10;;
71496;SDS011;59317;53.218;5.730;2023-04-28T03:38:41;10.43;;;4.22;;
71496;SDS011;59317;53.218;5.730;2023-04-28T03:41:13;11.63;;;4.32;;
71496;SDS011;59317;53.218;5.730;2023-04-28T03:43:39;12.57;;;5.53;;
71496;SDS011;59317;53.218;5.730;2023-04-28T03:46:05;13.23;;;5.20;;
71496;SDS011;59317;53.218;5.730;2023-04-28T03:48:31;11.63;;;5.00;;
71496;SDS011;59317;53.218;5.730;2023-04-28T03:50:56;13.27;;;5.88;;
71496;SDS011;59317;53.218;5.730;2023-04-28T03:53:22;12.50;;;5.70;;
71496;SDS011;59317;53.218;5.730;2023-04-28T03:55:49;11.75;;;5.18;;
71496;SDS011;59317;53.218;5.730;2023-04-28T03:58:15;13.95;;;5.40;;
71496;SDS011;59317;53.218;5.730;2023-04-28T04:00:41;11.45;;;5.05;;
71496;SDS011;59317;53.218;5.730;2023-04-28T04:03:07;13.88;;;5.53;;
71496;SDS011;59317;53.218;5.730;2023-04-28T04:05:33;13.32;;;5.25;;
71496;SDS011;59317;53.218;5.730;2023-04-28T04:07:59;13.90;;;4.90;;
71496;SDS011;59317;53.218;5.730;2023-04-28T04:10:26;12.02;;;4.88;;
71496;SDS011;59317;53.218;5.730;2023-04-28T04:12:52;11.85;;;5.22;;
71496;SDS011;59317;53.218;5.730;2023-04-28T04:15:18;11.90;;;5.03;;
71496;SDS011;59317;53.218;5.730;2023-04-28T04:17:44;11.90;;;4.45;;
71496;SDS011;59317;53.218;5.730;2023-04-28T04:20:11;12.50;;;5.25;;
71496;SDS011;59317;53.218;5.730;2023-04-28T04:22:37;12.77;;;5.30;;
71496;SDS011;59317;53.218;5.730;2023-04-28T04:25:03;12.90;;;6.10;;
71496;SDS011;59317;53.218;5.730;2023-04-28T04:27:29;18.88;;;6.50;;
71496;SDS011;59317;53.218;5.730;2023-04-28T04:29:55;15.13;;;5.47;;
71496;SDS011;59317;53.218;5.730;2023-04-28T04:32:21;14.23;;;5.63;;
71496;SDS011;59317;53.218;5.730;2023-04-28T04:34:47;12.60;;;5.53;;
71496;SDS011;59317;53.218;5.730;2023-04-28T04:37:13;12.37;;;5.40;;
71496;SDS011;59317;53.218;5.730;2023-04-28T04:39:39;14.93;;;6.03;;
71496;SDS011;59317;53.218;5.730;2023-04-28T04:42:05;15.32;;;6.07;;
71496;SDS011;59317;53.218;5.730;2023-04-28T04:44:31;13.55;;;5.55;;
71496;SDS011;59317;53.218;5.730;2023-04-28T04:46:57;14.98;;;6.15;;
71496;SDS011;59317;53.218;5.730;2023-04-28T04:49:23;12.23;;;5.13;;
71496;SDS011;59317;53.218;5.730;2023-04-28T04:51:49;14.07;;;5.60;;
71496;SDS011;59317;53.218;5.730;2023-04-28T04:54:15;15.30;;;6.40;;
71496;SDS011;59317;53.218;5.730;2023-04-28T04:56:40;15.32;;;6.65;;
71496;SDS011;59317;53.218;5.730;2023-04-28T04:59:06;15.30;;;6.43;;
71496;SDS011;59317;53.218;5.730;2023-04-28T05:01:32;16.30;;;6.97;;
71496;SDS011;59317;53.218;5.730;2023-04-28T05:03:58;13.68;;;5.45;;
71496;SDS011;59317;53.218;5.730;2023-04-28T05:06:24;15.27;;;6.80;;
71496;SDS011;59317;53.218;5.730;2023-04-28T05:08:50;15.00;;;6.13;;
71496;SDS011;59317;53.218;5.730;2023-04-28T05:11:16;16.13;;;6.70;;
71496;SDS011;59317;53.218;5.730;2023-04-28T05:13:43;15.87;;;6.50;;
71496;SDS011;59317;53.218;5.730;2023-04-28T05:16:09;16.25;;;6.97;;
71496;SDS011;59317;53.218;5.730;2023-04-28T05:18:35;14.10;;;5.60;;
71496;SDS011;59317;53.218;5.730;2023-04-28T05:21:01;16.60;;;6.47;;
71496;SDS011;59317;53.218;5.730;2023-04-28T05:23:27;15.90;;;6.85;;
71496;SDS011;59317;53.218;5.730;2023-04-28T05:25:53;18.27;;;7.13;;
71496;SDS011;59317;53.218;5.730;2023-04-28T05:28:19;17.25;;;6.43;;
71496;SDS011;59317;53.218;5.730;2023-04-28T05:30:45;16.80;;;6.90;;
71496;SDS011;59317;53.218;5.730;2023-04-28T05:33:11;14.85;;;6.28;;
71496;SDS011;59317;53.218;5.730;2023-04-28T05:35:38;15.52;;;7.13;;
71496;SDS011;59317;53.218;5.730;2023-04-28T05:38:04;15.27;;;6.75;;
71496;SDS011;59317;53.218;5.730;2023-04-28T05:40:31;13.38;;;6.18;;
71496;SDS011;59317;53.218;5.730;2023-04-28T05:42:56;16.73;;;6.78;;
71496;SDS011;59317;53.218;5.730;2023-04-28T05:45:22;17.30;;;7.30;;
71496;SDS011;59317;53.218;5.730;2023-04-28T05:47:48;15.73;;;6.93;;
71496;SDS011;59317;53.218;5.730;2023-04-28T05:50:14;17.57;;;7.10;;
71496;SDS011;59317;53.218;5.730;2023-04-28T05:52:40;15.73;;;6.40;;
71496;SDS011;59317;53.218;5.730;2023-04-28T05:55:06;17.08;;;7.80;;
71496;SDS011;59317;53.218;5.730;2023-04-28T05:57:33;16.02;;;6.90;;
71496;SDS011;59317;53.218;5.730;2023-04-28T05:59:59;15.35;;;6.47;;
71496;SDS011;59317;53.218;5.730;2023-04-28T06:02:25;16.30;;;7.38;;
71496;SDS011;59317;53.218;5.730;2023-04-28T06:04:51;17.13;;;7.27;;
71496;SDS011;59317;53.218;5.730;2023-04-28T06:07:17;15.40;;;6.63;;
71496;SDS011;59317;53.218;5.730;2023-04-28T06:09:43;13.50;;;5.95;;
71496;SDS011;59317;53.218;5.730;2023-04-28T06:12:09;14.07;;;5.80;;
71496;SDS011;59317;53.218;5.730;2023-04-28T06:14:35;15.10;;;6.90;;
71496;SDS011;59317;53.218;5.730;2023-04-28T06:17:02;15.10;;;6.85;;
71496;SDS011;59317;53.218;5.730;2023-04-28T06:19:28;16.58;;;7.07;;
71496;SDS011;59317;53.218;5.730;2023-04-28T06:21:54;22.85;;;7.72;;
71496;SDS011;59317;53.218;5.730;2023-04-28T06:24:20;18.45;;;8.30;;
71496;SDS011;59317;53.218;5.730;2023-04-28T06:26:46;18.15;;;8.32;;
71496;SDS011;59317;53.218;5.730;2023-04-28T06:29:12;18.48;;;7.78;;
71496;SDS011;59317;53.218;5.730;2023-04-28T06:31:38;15.85;;;6.25;;
71496;SDS011;59317;53.218;5.730;2023-04-28T06:34:04;14.65;;;6.60;;
71496;SDS011;59317;53.218;5.730;2023-04-28T06:36:29;15.63;;;7.07;;
71496;SDS011;59317;53.218;5.730;2023-04-28T06:38:56;17.50;;;7.60;;
71496;SDS011;59317;53.218;5.730;2023-04-28T06:41:23;16.08;;;6.90;;
71496;SDS011;59317;53.218;5.730;2023-04-28T06:43:49;15.27;;;7.05;;
71496;SDS011;59317;53.218;5.730;2023-04-28T06:46:15;16.35;;;7.10;;
71496;SDS011;59317;53.218;5.730;2023-04-28T06:48:41;16.73;;;7.20;;
71496;SDS011;59317;53.218;5.730;2023-04-28T06:51:07;16.27;;;7.38;;
71496;SDS011;59317;53.218;5.730;2023-04-28T06:53:33;14.33;;;7.10;;
71496;SDS011;59317;53.218;5.730;2023-04-28T06:55:59;15.83;;;8.37;;
71496;SDS011;59317;53.218;5.730;2023-04-28T06:58:26;16.23;;;7.63;;
71496;SDS011;59317;53.218;5.730;2023-04-28T07:00:53;14.77;;;6.72;;
71496;SDS011;59317;53.218;5.730;2023-04-28T07:03:19;17.60;;;7.95;;
71496;SDS011;59317;53.218;5.730;2023-04-28T07:05:45;15.70;;;6.78;;
71496;SDS011;59317;53.218;5.730;2023-04-28T07:08:11;15.57;;;7.05;;
71496;SDS011;59317;53.218;5.730;2023-04-28T07:10:37;15.23;;;7.30;;
71496;SDS011;59317;53.218;5.730;2023-04-28T07:13:03;16.27;;;7.57;;
71496;SDS011;59317;53.218;5.730;2023-04-28T07:15:29;16.42;;;7.85;;
71496;SDS011;59317;53.218;5.730;2023-04-28T07:17:55;19.93;;;8.97;;
71496;SDS011;59317;53.218;5.730;2023-04-28T07:20:21;15.60;;;7.15;;
71496;SDS011;59317;53.218;5.730;2023-04-28T07:22:47;16.53;;;7.77;;
71496;SDS011;59317;53.218;5.730;2023-04-28T07:25:13;16.23;;;7.70;;
71496;SDS011;59317;53.218;5.730;2023-04-28T07:27:39;16.60;;;7.65;;
71496;SDS011;59317;53.218;5.730;2023-04-28T07:30:06;16.33;;;7.90;;
71496;SDS011;59317;53.218;5.730;2023-04-28T07:32:32;17.98;;;8.32;;
71496;SDS011;59317;53.218;5.730;2023-04-28T07:34:58;18.25;;;8.38;;
71496;SDS011;59317;53.218;5.730;2023-04-28T07:37:24;16.03;;;7.67;;
71496;SDS011;59317;53.218;5.730;2023-04-28T07:39:50;16.92;;;7.97;;
71496;SDS011;59317;53.218;5.730;2023-04-28T07:42:16;19.17;;;7.78;;
71496;SDS011;59317;53.218;5.730;2023-04-28T07:44:43;16.60;;;7.65;;
71496;SDS011;59317;53.218;5.730;2023-04-28T07:47:09;15.75;;;7.15;;
71496;SDS011;59317;53.218;5.730;2023-04-28T07:49:35;16.00;;;6.85;;
71496;SDS011;59317;53.218;5.730;2023-04-28T07:52:01;18.38;;;8.38;;
71496;SDS011;59317;53.218;5.730;2023-04-28T07:54:27;16.63;;;7.90;;
71496;SDS011;59317;53.218;5.730;2023-04-28T07:56:53;26.33;;;10.10;;
71496;SDS011;59317;53.218;5.730;2023-04-28T07:59:22;22.17;;;10.27;;
71496;SDS011;59317;53.218;5.730;2023-04-28T08:01:48;17.65;;;8.65;;
71496;SDS011;59317;53.218;5.730;2023-04-28T08:04:13;17.08;;;8.00;;
71496;SDS011;59317;53.218;5.730;2023-04-28T08:06:40;21.48;;;9.57;;
71496;SDS011;59317;53.218;5.730;2023-04-28T08:09:06;17.45;;;8.82;;
71496;SDS011;59317;53.218;5.730;2023-04-28T08:11:32;16.77;;;8.80;;
71496;SDS011;59317;53.218;5.730;2023-04-28T08:13:59;15.77;;;7.73;;
71496;SDS011;59317;53.218;5.730;2023-04-28T08:16:27;17.40;;;7.97;;
71496;SDS011;59317;53.218;5.730;2023-04-28T08:18:53;12.97;;;6.10;;
71496;SDS011;59317;53.218;5.730;2023-04-28T08:21:19;16.70;;;7.70;;
71496;SDS011;59317;53.218;5.730;2023-04-28T08:23:45;14.63;;;6.90;;
71496;SDS011;59317;53.218;5.730;2023-04-28T08:26:11;17.15;;;8.32;;
71496;SDS011;59317;53.218;5.730;2023-04-28T08:28:37;17.15;;;8.25;;
71496;SDS011;59317;53.218;5.730;2023-04-28T08:31:04;17.38;;;7.38;;
71496;SDS011;59317;53.218;5.730;2023-04-28T08:33:30;17.38;;;8.00;;
71496;SDS011;59317;53.218;5.730;2023-04-28T08:35:56;10.90;;;5.30;;
71496;SDS011;59317;53.218;5.730;2023-04-28T08:38:22;14.48;;;6.95;;
71496;SDS011;59317;53.218;5.730;2023-04-28T08:40:49;12.68;;;6.22;;
71496;SDS011;59317;53.218;5.730;2023-04-28T08:43:15;15.23;;;7.80;;
71496;SDS011;59317;53.218;5.730;2023-04-28T08:45:42;14.57;;;7.72;;
71496;SDS011;59317;53.218;5.730;2023-04-28T08:48:17;17.10;;;7.60;;
71496;SDS011;59317;53.218;5.730;2023-04-28T08:50:47;15.35;;;7.10;;
71496;SDS011;59317;53.218;5.730;2023-04-28T08:53:14;15.43;;;7.40;;
71496;SDS011;59317;53.218;5.730;2023-04-28T08:55:42;14.87;;;7.53;;
71496;SDS011;59317;53.218;5.730;2023-04-28T08:58:08;15.73;;;6.95;;
71496;SDS011;59317;53.218;5.730;2023-04-28T09:00:35;14.70;;;7.03;;
71496;SDS011;59317;53.218;5.730;2023-04-28T09:03:02;15.65;;;8.68;;
71496;SDS011;59317;53.218;5.730;2023-04-28T09:05:29;16.85;;;7.88;;
71496;SDS011;59317;53.218;5.730;2023-04-28T09:07:56;16.75;;;8.50;;
71496;SDS011;59317;53.218;5.730;2023-04-28T09:10:22;13.93;;;7.28;;
71496;SDS011;59317;53.218;5.730;2023-04-28T09:12:52;15.73;;;8.43;;
71496;SDS011;59317;53.218;5.730;2023-04-28T09:15:26;16.73;;;8.15;;
71496;SDS011;59317;53.218;5.730;2023-04-28T09:17:52;16.73;;;8.13;;
71496;SDS011;59317;53.218;5.730;2023-04-28T09:20:25;16.38;;;8.25;;
71496;SDS011;59317;53.218;5.730;2023-04-28T09:22:51;17.67;;;9.05;;
71496;SDS011;59317;53.218;5.730;2023-04-28T09:25:18;13.25;;;6.72;;
71496;SDS011;59317;53.218;5.730;2023-04-28T09:27:46;13.25;;;5.82;;
71496;SDS011;59317;53.218;5.730;2023-04-28T09:30:12;15.00;;;6.75;;
71496;SDS011;59317;53.218;5.730;2023-04-28T09:32:38;13.68;;;6.20;;
71496;SDS011;59317;53.218;5.730;2023-04-28T09:35:04;13.18;;;6.40;;
71496;SDS011;59317;53.218;5.730;2023-04-28T09:37:32;17.42;;;8.40;;
71496;SDS011;59317;53.218;5.730;2023-04-28T09:47:36;14.77;;;7.53;;
71496;SDS011;59317;53.218;5.730;2023-04-28T09:50:03;16.00;;;8.23;;
71496;SDS011;59317;53.218;5.730;2023-04-28T09:52:30;19.63;;;9.18;;
71496;SDS011;59317;53.218;5.730;2023-04-28T09:54:56;16.20;;;6.75;;
71496;SDS011;59317;53.218;5.730;2023-04-28T09:57:23;12.80;;;5.97;;
71496;SDS011;59317;53.218;5.730;2023-04-28T09:59:50;16.63;;;8.65;;
71496;SDS011;59317;53.218;5.730;2023-04-28T10:02:17;15.77;;;7.18;;
71496;SDS011;59317;53.218;5.730;2023-04-28T10:04:44;16.83;;;7.85;;
71496;SDS011;59317;53.218;5.730;2023-04-28T10:07:11;20.35;;;9.73;;
71496;SDS011;59317;53.218;5.730;2023-04-28T10:09:38;19.60;;;10.55;;
71496;SDS011;59317;53.218;5.730;2023-04-28T10:12:14;22.63;;;11.10;;
71496;SDS011;59317;53.218;5.730;2023-04-28T10:14:42;19.65;;;10.43;;
71496;SDS011;59317;53.218;5.730;2023-04-28T10:17:09;19.40;;;10.30;;
71496;SDS011;59317;53.218;5.730;2023-04-28T10:19:36;19.37;;;10.87;;
71496;SDS011;59317;53.218;5.730;2023-04-28T10:22:07;18.90;;;9.63;;
71496;SDS011;59317;53.218;5.730;2023-04-28T10:24:45;18.80;;;9.60;;
71496;SDS011;59317;53.218;5.730;2023-04-28T10:27:13;19.65;;;10.43;;
71496;SDS011;59317;53.218;5.730;2023-04-28T10:29:40;20.65;;;9.80;;
71496;SDS011;59317;53.218;5.730;2023-04-28T10:32:19;20.17;;;11.10;;
71496;SDS011;59317;53.218;5.730;2023-04-28T10:34:46;22.75;;;11.43;;
71496;SDS011;59317;53.218;5.730;2023-04-28T10:37:12;21.37;;;10.83;;
71496;SDS011;59317;53.218;5.730;2023-04-28T10:42:50;22.90;;;10.65;;
71496;SDS011;59317;53.218;5.730;2023-04-28T10:45:13;20.27;;;10.10;;
71496;SDS011;59317;53.218;5.730;2023-04-28T10:47:58;19.30;;;9.87;;
71496;SDS011;59317;53.218;5.730;2023-04-28T10:50:30;19.20;;;10.32;;
71496;SDS011;59317;53.218;5.730;2023-04-28T10:52:56;17.15;;;8.85;;
71496;SDS011;59317;53.218;5.730;2023-04-28T10:58:29;19.83;;;9.70;;
71496;SDS011;59317;53.218;5.730;2023-04-28T11:00:40;16.60;;;8.30;;
71496;SDS011;59317;53.218;5.730;2023-04-28T11:03:06;19.85;;;9.05;;
71496;SDS011;59317;53.218;5.730;2023-04-28T11:05:32;17.85;;;9.30;;
71496;SDS011;59317;53.218;5.730;2023-04-28T11:13:30;17.80;;;9.80;;
71496;SDS011;59317;53.218;5.730;2023-04-28T11:16:04;19.35;;;11.27;;
71496;SDS011;59317;53.218;5.730;2023-04-28T11:18:44;19.65;;;10.00;;
71496;SDS011;59317;53.218;5.730;2023-04-28T11:21:14;19.30;;;10.25;;
71496;SDS011;59317;53.218;5.730;2023-04-28T11:23:40;19.50;;;11.88;;
71496;SDS011;59317;53.218;5.730;2023-04-28T11:26:07;19.10;;;10.45;;
71496;SDS011;59317;53.218;5.730;2023-04-28T11:28:33;20.15;;;10.73;;
71496;SDS011;59317;53.218;5.730;2023-04-28T11:31:12;18.60;;;10.25;;
71496;SDS011;59317;53.218;5.730;2023-04-28T11:33:43;21.30;;;11.60;;
71496;SDS011;59317;53.218;5.730;2023-04-28T11:36:20;21.23;;;12.50;;
71496;SDS011;59317;53.218;5.730;2023-04-28T11:38:46;22.90;;;12.52;;
71496;SDS011;59317;53.218;5.730;2023-04-28T11:41:13;19.85;;;10.23;;
71496;SDS011;59317;53.218;5.730;2023-04-28T11:43:39;16.40;;;8.73;;
71496;SDS011;59317;53.218;5.730;2023-04-28T11:46:06;19.95;;;11.15;;
71496;SDS011;59317;53.218;5.730;2023-04-28T11:48:32;22.58;;;11.55;;
71496;SDS011;59317;53.218;5.730;2023-04-28T11:50:58;18.05;;;9.80;;
71496;SDS011;59317;53.218;5.730;2023-04-28T11:53:41;17.40;;;10.77;;
71496;SDS011;59317;53.218;5.730;2023-04-28T11:56:07;17.90;;;10.10;;
71496;SDS011;59317;53.218;5.730;2023-04-28T11:58:33;16.08;;;8.88;;
71496;SDS011;59317;53.218;5.730;2023-04-28T12:01:11;18.17;;;10.00;;
71496;SDS011;59317;53.218;5.730;2023-04-28T12:03:45;19.95;;;12.07;;
71496;SDS011;59317;53.218;5.730;2023-04-28T12:06:15;18.63;;;10.70;;
71496;SDS011;59317;53.218;5.730;2023-04-28T12:08:44;20.70;;;12.13;;
71496;SDS011;59317;53.218;5.730;2023-04-28T12:11:11;19.10;;;11.50;;
71496;SDS011;59317;53.218;5.730;2023-04-28T12:13:38;20.85;;;11.88;;
71496;SDS011;59317;53.218;5.730;2023-04-28T12:16:04;18.13;;;10.05;;
71496;SDS011;59317;53.218;5.730;2023-04-28T12:18:34;20.03;;;9.40;;
71496;SDS011;59317;53.218;5.730;2023-04-28T12:21:00;19.23;;;10.85;;
71496;SDS011;59317;53.218;5.730;2023-04-28T12:23:29;18.65;;;10.98;;
71496;SDS011;59317;53.218;5.730;2023-04-28T12:26:01;20.42;;;11.52;;
71496;SDS011;59317;53.218;5.730;2023-04-28T12:28:40;17.25;;;10.65;;
71496;SDS011;59317;53.218;5.730;2023-04-28T12:31:06;20.70;;;11.60;;
71496;SDS011;59317;53.218;5.730;2023-04-28T12:33:34;19.85;;;10.45;;
71496;SDS011;59317;53.218;5.730;2023-04-28T12:36:03;23.95;;;12.75;;
71496;SDS011;59317;53.218;5.730;2023-04-28T12:38:32;23.05;;;12.88;;
71496;SDS011;59317;53.218;5.730;2023-04-28T12:40:58;22.27;;;13.43;;
71496;SDS011;59317;53.218;5.730;2023-04-28T12:43:24;22.23;;;12.35;;
71496;SDS011;59317;53.218;5.730;2023-04-28T12:45:53;27.60;;;14.23;;
71496;SDS011;59317;53.218;5.730;2023-04-28T12:48:20;25.17;;;14.45;;
71496;SDS011;59317;53.218;5.730;2023-04-28T12:50:51;27.23;;;14.68;;
71496;SDS011;59317;53.218;5.730;2023-04-28T12:53:17;27.00;;;15.45;;
71496;SDS011;59317;53.218;5.730;2023-04-28T12:55:43;31.10;;;16.77;;
71496;SDS011;59317;53.218;5.730;2023-04-28T12:58:09;24.80;;;15.10;;
71496;SDS011;59317;53.218;5.730;2023-04-28T13:00:35;25.93;;;15.50;;
71496;SDS011;59317;53.218;5.730;2023-04-28T13:03:01;27.40;;;15.88;;
71496;SDS011;59317;53.218;5.730;2023-04-28T13:05:27;27.13;;;14.90;;
71496;SDS011;59317;53.218;5.730;2023-04-28T13:07:53;25.88;;;15.15;;
71496;SDS011;59317;53.218;5.730;2023-04-28T13:10:19;25.67;;;15.73;;
71496;SDS011;59317;53.218;5.730;2023-04-28T13:12:47;27.67;;;14.90;;
71496;SDS011;59317;53.218;5.730;2023-04-28T13:15:13;23.92;;;15.18;;
71496;SDS011;59317;53.218;5.730;2023-04-28T13:17:39;20.48;;;11.45;;
71496;SDS011;59317;53.218;5.730;2023-04-28T13:20:05;26.83;;;15.30;;
71496;SDS011;59317;53.218;5.730;2023-04-28T13:22:31;18.98;;;11.20;;
71496;SDS011;59317;53.218;5.730;2023-04-28T13:24:57;27.33;;;15.75;;
71496;SDS011;59317;53.218;5.730;2023-04-28T13:27:23;24.13;;;15.30;;
71496;SDS011;59317;53.218;5.730;2023-04-28T13:29:49;21.15;;;13.00;;
71496;SDS011;59317;53.218;5.730;2023-04-28T13:32:15;27.58;;;15.57;;
71496;SDS011;59317;53.218;5.730;2023-04-28T13:34:42;36.70;;;18.70;;
71496;SDS011;59317;53.218;5.730;2023-04-28T13:37:08;38.85;;;19.17;;
71496;SDS011;59317;53.218;5.730;2023-04-28T13:39:35;35.00;;;18.95;;
71496;SDS011;59317;53.218;5.730;2023-04-28T13:42:00;33.55;;;16.92;;
71496;SDS011;59317;53.218;5.730;2023-04-28T13:44:27;31.17;;;16.98;;
71496;SDS011;59317;53.218;5.730;2023-04-28T13:46:52;31.80;;;15.63;;
71496;SDS011;59317;53.218;5.730;2023-04-28T13:49:18;28.05;;;15.80;;
71496;SDS011;59317;53.218;5.730;2023-04-28T13:51:46;27.33;;;15.45;;
71496;SDS011;59317;53.218;5.730;2023-04-28T13:54:12;28.70;;;15.38;;
71496;SDS011;59317;53.218;5.730;2023-04-28T13:56:38;27.60;;;15.07;;
71496;SDS011;59317;53.218;5.730;2023-04-28T13:59:04;27.23;;;15.23;;
71496;SDS011;59317;53.218;5.730;2023-04-28T14:01:30;25.25;;;13.65;;
71496;SDS011;59317;53.218;5.730;2023-04-28T14:03:56;28.17;;;16.42;;
71496;SDS011;59317;53.218;5.730;2023-04-28T14:06:22;30.27;;;15.68;;
71496;SDS011;59317;53.218;5.730;2023-04-28T14:08:48;31.63;;;17.33;;
71496;SDS011;59317;53.218;5.730;2023-04-28T14:11:14;27.17;;;15.57;;
71496;SDS011;59317;53.218;5.730;2023-04-28T14:13:41;31.02;;;16.75;;
71496;SDS011;59317;53.218;5.730;2023-04-28T14:16:07;29.08;;;15.60;;
71496;SDS011;59317;53.218;5.730;2023-04-28T14:18:33;29.13;;;15.93;;
71496;SDS011;59317;53.218;5.730;2023-04-28T14:20:59;28.67;;;15.77;;
71496;SDS011;59317;53.218;5.730;2023-04-28T14:23:26;29.02;;;17.10;;
71496;SDS011;59317;53.218;5.730;2023-04-28T14:25:52;30.60;;;17.17;;
71496;SDS011;59317;53.218;5.730;2023-04-28T14:28:19;33.58;;;18.15;;
71496;SDS011;59317;53.218;5.730;2023-04-28T14:30:46;28.67;;;14.97;;
71496;SDS011;59317;53.218;5.730;2023-04-28T14:33:12;28.80;;;16.43;;
71496;SDS011;59317;53.218;5.730;2023-04-28T14:35:38;27.83;;;16.10;;
71496;SDS011;59317;53.218;5.730;2023-04-28T14:38:05;28.15;;;16.48;;
71496;SDS011;59317;53.218;5.730;2023-04-28T14:40:31;32.35;;;20.58;;
71496;SDS011;59317;53.218;5.730;2023-04-28T14:42:57;32.27;;;18.70;;
71496;SDS011;59317;53.218;5.730;2023-04-28T14:45:23;29.53;;;18.00;;
71496;SDS011;59317;53.218;5.730;2023-04-28T14:47:50;28.23;;;17.27;;
71496;SDS011;59317;53.218;5.730;2023-04-28T14:50:16;32.80;;;19.92;;